createdAt,value
2023-03-07T00:02:06.786Z,88.90
2023-03-07T00:04:34.201Z,88.50
2023-03-07T00:07:01.893Z,88.19
2023-03-07T00:09:29.178Z,88.67
2023-03-07T00:11:56.695Z,89.52
2023-03-07T00:14:23.952Z,89.85
2023-03-07T00:16:52.121Z,90.47
2023-03-07T00:19:19.455Z,90.18
2023-03-07T00:21:47.095Z,89.66
2023-03-07T00:24:14.308Z,89.23
2023-03-07T00:26:42.046Z,90.64
2023-03-07T00:29:10.494Z,90.31
2023-03-07T00:31:38.389Z,91.58
2023-03-07T00:34:05.918Z,91.95
2023-03-07T00:36:33.590Z,92.35
2023-03-07T00:39:00.875Z,92.08
2023-03-07T00:41:29.344Z,91.48
2023-03-07T00:43:56.755Z,92.74
2023-03-07T00:46:25.911Z,93.48
2023-03-07T00:48:53.415Z,94.25
2023-03-07T00:51:22.415Z,94.63
2023-03-07T00:53:50.750Z,95.78
2023-03-07T00:56:22.289Z,95.31
2023-03-07T00:58:50.516Z,94.96
2023-03-07T01:01:23.762Z,94.62
2023-03-07T01:03:53.871Z,94.27
2023-03-07T01:06:24.118Z,94.58
2023-03-07T01:08:52.728Z,94.15
2023-03-07T01:11:20.421Z,93.68
2023-03-07T01:13:47.766Z,92.65
2023-03-07T01:16:24.478Z,93.63
2023-03-07T01:18:54.561Z,94.57
2023-03-07T01:21:32.007Z,93.84
2023-03-07T01:24:03.020Z,94.26
2023-03-07T01:26:32.483Z,94.58
2023-03-07T01:29:02.780Z,94.46
2023-03-07T01:31:34.206Z,93.85
2023-03-07T01:34:03.000Z,93.45
2023-03-07T01:36:35.336Z,92.79
2023-03-07T01:39:14.652Z,92.15
2023-03-07T01:41:47.768Z,93.21
2023-03-07T01:44:22.329Z,93.91
2023-03-07T01:46:53.552Z,92.99
2023-03-07T01:49:32.804Z,93.52
2023-03-07T01:52:03.210Z,93.85
2023-03-07T01:54:32.893Z,93.43
2023-03-07T01:57:04.620Z,93.94
2023-03-07T01:59:36.884Z,93.99
2023-03-07T02:02:10.207Z,93.41
2023-03-07T02:05:06.771Z,93.40
2023-03-07T02:07:40.774Z,93.74
2023-03-07T02:10:10.892Z,93.37
2023-03-07T02:12:40.447Z,94.12
2023-03-07T02:15:10.541Z,94.63
2023-03-07T02:17:40.092Z,95.29
2023-03-07T02:20:35.467Z,95.16
2023-03-07T02:23:04.779Z,94.50
2023-03-07T02:25:39.545Z,94.89
2023-03-07T02:28:11.813Z,96.55
2023-03-07T02:30:52.139Z,95.71
2023-03-07T02:33:23.235Z,95.70
2023-03-07T02:35:56.096Z,96.65
2023-03-07T02:38:24.909Z,97.71
2023-03-07T02:40:55.327Z,97.93
2023-03-07T02:43:23.433Z,100.00
2023-03-07T02:45:50.833Z,99.07
2023-03-07T02:48:18.581Z,99.44
2023-03-07T02:50:45.799Z,98.95
2023-03-07T02:53:13.420Z,100.00
2023-03-07T02:55:40.672Z,100.00
2023-03-07T02:58:08.367Z,100.00
2023-03-07T03:00:37.053Z,100.00
2023-03-07T03:03:05.191Z,100.00
2023-03-07T03:05:32.592Z,99.58
2023-03-07T03:08:00.263Z,98.60
2023-03-07T03:10:27.540Z,97.26
2023-03-07T03:12:55.535Z,96.21
2023-03-07T03:15:23.744Z,96.34
2023-03-07T03:17:54.148Z,96.70
2023-03-07T03:20:21.477Z,96.41
2023-03-07T03:22:52.293Z,97.40
2023-03-07T03:25:23.166Z,97.10
2023-03-07T03:27:51.207Z,96.44
2023-03-07T03:30:20.237Z,96.33
2023-03-07T03:32:47.957Z,96.01
2023-03-07T03:35:17.356Z,95.16
2023-03-07T03:37:46.005Z,95.72
2023-03-07T03:40:17.684Z,96.56
2023-03-07T03:42:46.937Z,97.67
2023-03-07T03:45:17.176Z,98.09
2023-03-07T03:47:44.741Z,98.15
2023-03-07T03:50:12.608Z,98.79
2023-03-07T03:52:40.655Z,98.03
2023-03-07T03:55:09.432Z,98.03
2023-03-07T03:57:37.013Z,98.49
2023-03-07T04:00:05.845Z,97.95
2023-03-07T04:02:40.430Z,98.64
2023-03-07T04:05:12.208Z,99.36
2023-03-07T04:07:39.848Z,98.20
2023-03-07T04:10:07.826Z,97.75
2023-03-07T04:12:35.897Z,97.67
2023-03-07T04:15:07.274Z,97.74
2023-03-07T04:17:35.788Z,98.33
2023-03-07T04:20:04.932Z,98.68
2023-03-07T04:22:33.459Z,98.92
2023-03-07T04:25:00.713Z,98.25
2023-03-07T04:27:28.377Z,98.68
2023-03-07T04:29:55.973Z,97.35
2023-03-07T04:32:23.708Z,98.40
2023-03-07T04:34:51.034Z,98.91
2023-03-07T04:37:18.575Z,99.81
2023-03-07T04:39:45.845Z,99.80
2023-03-07T04:42:14.336Z,99.82
2023-03-07T04:44:41.653Z,99.99
2023-03-07T04:47:09.272Z,99.69
2023-03-07T04:49:37.413Z,100.00
2023-03-07T04:52:06.882Z,100.00
2023-03-07T04:54:34.524Z,100.00
2023-03-07T04:57:03.998Z,100.00
2023-03-07T04:59:31.855Z,100.00
2023-03-07T05:01:59.686Z,100.00
2023-03-07T05:04:27.913Z,100.00
2023-03-07T05:06:56.210Z,100.00
2023-03-07T05:09:23.689Z,100.00
2023-03-07T05:11:53.527Z,100.00
2023-03-07T05:14:21.780Z,100.00
2023-03-07T05:16:49.598Z,100.00
2023-03-07T05:19:17.003Z,100.00
2023-03-07T05:21:44.865Z,100.00
2023-03-07T05:24:13.023Z,100.00
2023-03-07T05:26:40.973Z,100.00
2023-03-07T05:29:08.235Z,100.00
2023-03-07T05:31:36.397Z,100.00
2023-03-07T05:34:05.864Z,100.00
2023-03-07T05:36:33.512Z,100.00
2023-03-07T05:39:01.166Z,100.00
2023-03-07T05:41:29.094Z,100.00
2023-03-07T05:43:56.514Z,100.00
2023-03-07T05:46:24.640Z,100.00
2023-03-07T05:48:52.211Z,100.00
2023-03-07T05:51:19.803Z,100.00
2023-03-07T05:53:47.262Z,100.00
2023-03-07T05:56:15.204Z,100.00
2023-03-07T05:58:42.837Z,100.00
2023-03-07T06:01:10.784Z,100.00
2023-03-07T06:03:38.597Z,100.00
2023-03-07T06:06:06.582Z,100.00
2023-03-07T06:08:33.889Z,100.00
2023-03-07T06:11:01.826Z,100.00
2023-03-07T06:13:31.134Z,100.00
2023-03-07T06:15:58.807Z,100.00
2023-03-07T06:18:26.563Z,100.00
2023-03-07T06:21:06.281Z,100.00
2023-03-07T06:23:38.404Z,100.00
2023-03-07T06:26:12.590Z,100.00
2023-03-07T06:28:42.686Z,100.00
2023-03-07T06:31:14.005Z,91.75
2023-03-07T06:33:42.429Z,94.85
2023-03-07T06:36:13.405Z,95.20
2023-03-07T06:38:43.027Z,96.38
2023-03-07T06:41:10.870Z,94.12
2023-03-07T06:43:38.540Z,90.34
2023-03-07T06:46:06.585Z,87.23
2023-03-07T06:48:38.373Z,79.42
2023-03-07T06:51:10.559Z,79.90
2023-03-07T06:53:41.228Z,76.09
2023-03-07T06:56:09.193Z,76.69
2023-03-07T06:58:37.652Z,79.81
2023-03-07T07:01:05.718Z,87.41
2023-03-07T07:03:35.494Z,84.91
2023-03-07T07:06:03.785Z,81.64
2023-03-07T07:08:31.745Z,81.26
2023-03-07T07:10:59.589Z,79.55
2023-03-07T07:13:27.668Z,71.57
2023-03-07T07:15:55.675Z,82.47
2023-03-07T07:18:24.915Z,77.32
2023-03-07T07:20:56.564Z,78.31
2023-03-07T07:23:27.127Z,83.24
2023-03-07T07:25:55.305Z,90.71
2023-03-07T07:28:22.875Z,93.71
2023-03-07T07:30:50.657Z,92.77
2023-03-07T07:33:18.101Z,90.74
2023-03-07T07:35:49.359Z,90.30
2023-03-07T07:38:16.950Z,85.13
2023-03-07T07:40:45.260Z,81.90
2023-03-07T07:43:18.123Z,68.65
2023-03-07T07:45:50.330Z,66.31
2023-03-07T07:48:20.826Z,69.46
2023-03-07T07:50:48.735Z,76.13
2023-03-07T07:53:18.823Z,68.45
2023-03-07T07:55:49.021Z,68.22
2023-03-07T07:58:17.368Z,80.42
2023-03-07T08:00:46.225Z,83.74
2023-03-07T08:03:13.547Z,86.89
2023-03-07T08:05:45.918Z,86.51
2023-03-07T08:08:13.300Z,88.47
2023-03-07T08:10:43.222Z,89.42
2023-03-07T08:13:14.372Z,90.30
2023-03-07T08:15:42.713Z,87.31
2023-03-07T08:18:12.700Z,85.13
2023-03-07T08:20:41.381Z,86.18
2023-03-07T08:23:09.248Z,84.06
2023-03-07T08:25:36.965Z,85.15
2023-03-07T08:28:05.542Z,84.24
2023-03-07T08:30:35.232Z,84.18
2023-03-07T08:33:02.622Z,81.51
2023-03-07T08:35:31.135Z,85.67
2023-03-07T08:38:01.633Z,85.29
2023-03-07T08:40:30.782Z,80.51
2023-03-07T08:43:01.061Z,82.91
2023-03-07T08:45:28.887Z,82.50
2023-03-07T08:47:56.978Z,78.58
2023-03-07T08:50:27.094Z,78.33
2023-03-07T08:52:54.530Z,76.89
2023-03-07T08:55:22.059Z,74.99
2023-03-07T08:57:49.445Z,72.59
2023-03-07T09:00:17.964Z,73.30
2023-03-07T09:02:46.481Z,73.05
2023-03-07T09:05:14.435Z,74.73
2023-03-07T09:07:42.501Z,73.48
2023-03-07T09:10:11.770Z,74.82
2023-03-07T09:12:39.064Z,72.45
2023-03-07T09:15:07.092Z,75.63
2023-03-07T09:17:34.445Z,75.77
2023-03-07T09:20:02.076Z,77.29
2023-03-07T09:22:29.387Z,77.24
2023-03-07T09:24:56.946Z,79.29
2023-03-07T09:27:24.738Z,80.63
2023-03-07T09:29:52.264Z,80.31
2023-03-07T09:32:19.542Z,83.85
2023-03-07T09:34:47.169Z,91.82
2023-03-07T09:37:14.778Z,92.90
2023-03-07T09:39:42.320Z,96.43
2023-03-07T09:43:03.601Z,97.85
2023-03-07T09:45:49.845Z,98.58
2023-03-07T09:48:48.038Z,99.42
2023-03-07T09:51:44.975Z,100.00
2023-03-07T09:54:17.327Z,100.00
2023-03-07T09:56:49.661Z,100.00
2023-03-07T09:59:38.383Z,100.00
2023-03-07T10:02:23.987Z,100.00
2023-03-07T10:05:18.636Z,100.00
2023-03-07T10:07:46.217Z,100.00
2023-03-07T10:10:33.239Z,100.00
2023-03-07T10:13:17.280Z,100.00
2023-03-07T10:15:56.707Z,100.00
2023-03-07T10:18:33.029Z,100.00
2023-03-07T10:21:12.401Z,100.00
2023-03-07T10:24:04.464Z,100.00
2023-03-07T10:26:47.783Z,100.00
2023-03-07T10:29:19.095Z,100.00
2023-03-07T10:31:51.589Z,100.00
2023-03-07T10:34:32.553Z,100.00
2023-03-07T10:37:16.253Z,100.00
2023-03-07T10:39:52.452Z,100.00
2023-03-07T10:42:22.749Z,100.00
2023-03-07T10:44:53.919Z,100.00
2023-03-07T10:47:26.835Z,100.00
2023-03-07T10:50:08.667Z,100.00
2023-03-07T10:52:41.320Z,100.00
2023-03-07T10:55:42.303Z,100.00
2023-03-07T10:58:20.475Z,100.00
2023-03-07T11:01:07.389Z,100.00
2023-03-07T11:03:54.243Z,100.00
2023-03-07T11:06:40.314Z,100.00
2023-03-07T11:09:11.317Z,100.00
2023-03-07T11:11:39.138Z,100.00
2023-03-07T11:14:14.487Z,100.00
2023-03-07T11:16:49.676Z,100.00
2023-03-07T11:19:38.640Z,100.00
2023-03-07T11:22:36.751Z,100.00
2023-03-07T11:25:20.755Z,100.00
2023-03-07T11:27:58.973Z,100.00
2023-03-07T11:30:35.639Z,100.00
2023-03-07T11:33:28.317Z,100.00
2023-03-07T11:36:14.660Z,100.00
2023-03-07T11:39:00.456Z,100.00
2023-03-07T11:41:42.195Z,100.00
2023-03-07T11:44:35.448Z,100.00
2023-03-07T11:47:17.848Z,100.00
2023-03-07T11:49:46.887Z,100.00
2023-03-07T11:52:39.082Z,100.00
2023-03-07T11:55:46.790Z,100.00
2023-03-07T11:58:26.288Z,100.00
2023-03-07T12:00:59.745Z,100.00
2023-03-07T12:03:27.046Z,100.00
2023-03-07T12:06:03.434Z,100.00
2023-03-07T12:08:52.109Z,100.00
2023-03-07T12:11:57.866Z,100.00
2023-03-07T12:14:47.196Z,100.00
2023-03-07T12:17:48.932Z,100.00
2023-03-07T12:20:47.059Z,100.00
2023-03-07T12:23:39.542Z,100.00
2023-03-07T12:26:17.378Z,100.00
2023-03-07T12:28:52.168Z,100.00
2023-03-07T12:31:28.393Z,100.00
2023-03-07T12:34:11.923Z,100.00
2023-03-07T12:36:50.971Z,100.00
2023-03-07T12:39:30.033Z,100.00
2023-03-07T12:42:05.987Z,100.00
2023-03-07T12:44:43.047Z,100.00
2023-03-07T12:47:47.642Z,100.00
2023-03-07T12:50:20.400Z,100.00
2023-03-07T12:53:07.136Z,100.00
2023-03-07T12:55:46.497Z,100.00
2023-03-07T12:58:50.412Z,100.00
2023-03-07T13:01:52.377Z,100.00
2023-03-07T13:04:43.312Z,100.00
2023-03-07T13:07:20.660Z,100.00
2023-03-07T13:09:50.992Z,100.00
2023-03-07T13:12:25.556Z,100.00
2023-03-07T13:14:55.454Z,100.00
2023-03-07T13:17:34.959Z,100.00
2023-03-07T13:20:05.000Z,100.00
2023-03-07T13:22:32.544Z,100.00
2023-03-07T13:25:21.556Z,99.27
2023-03-07T13:27:56.587Z,97.64
2023-03-07T13:30:30.064Z,94.51
2023-03-07T13:32:59.336Z,96.51
2023-03-07T13:35:29.614Z,93.82
2023-03-07T13:37:58.213Z,93.27
2023-03-07T13:40:43.691Z,96.27
2023-03-07T13:43:25.000Z,94.96
2023-03-07T13:46:16.185Z,93.80
2023-03-07T13:48:43.697Z,93.36
2023-03-07T13:51:12.373Z,93.63
2023-03-07T13:54:01.478Z,92.23
2023-03-07T13:56:35.159Z,92.15
2023-03-07T13:59:14.966Z,89.85
2023-03-07T14:01:53.950Z,89.27
2023-03-07T14:04:39.266Z,88.98
2023-03-07T14:07:20.798Z,88.63
2023-03-07T14:10:09.887Z,87.87
2023-03-07T14:13:05.645Z,88.01
2023-03-07T14:15:38.697Z,89.40
2023-03-07T14:18:30.912Z,87.54
2023-03-07T14:21:17.043Z,87.06
2023-03-07T14:24:06.048Z,87.06
2023-03-07T14:26:44.995Z,87.06
2023-03-07T14:29:26.124Z,86.88
2023-03-07T14:31:57.050Z,85.08
2023-03-07T14:34:24.319Z,85.40
2023-03-07T14:37:04.553Z,83.73
2023-03-07T14:39:59.237Z,85.01
2023-03-07T14:42:45.546Z,85.06
2023-03-07T14:45:15.549Z,84.10
2023-03-07T14:47:52.060Z,85.92
2023-03-07T14:50:23.489Z,85.43
2023-03-07T14:52:56.204Z,85.02
2023-03-07T14:55:36.127Z,85.59
2023-03-07T14:58:04.692Z,86.06
2023-03-07T15:00:34.039Z,86.88
2023-03-07T15:03:09.878Z,86.44
2023-03-07T15:05:48.405Z,87.09
2023-03-07T15:08:23.737Z,85.99
2023-03-07T15:11:04.397Z,86.07
2023-03-07T15:13:54.697Z,86.21
2023-03-07T15:16:28.552Z,85.88
2023-03-07T15:19:06.477Z,86.06
2023-03-07T15:21:40.528Z,88.69
2023-03-07T15:24:22.884Z,88.89
2023-03-07T15:26:53.612Z,88.69
2023-03-07T15:29:26.912Z,88.11
2023-03-07T15:32:07.351Z,87.30
2023-03-07T15:34:38.717Z,87.51
2023-03-07T15:37:24.127Z,88.65
2023-03-07T15:40:08.360Z,88.51
2023-03-07T15:42:50.296Z,90.27
2023-03-07T15:45:33.933Z,89.51
2023-03-07T15:48:29.826Z,90.48
2023-03-07T15:51:00.143Z,90.55
2023-03-07T15:53:31.866Z,92.09
2023-03-07T15:56:00.727Z,91.11
2023-03-07T15:58:29.169Z,92.98
2023-03-07T16:01:17.211Z,92.89
2023-03-07T16:03:53.367Z,93.09
2023-03-07T16:06:39.337Z,93.00
2023-03-07T16:09:11.477Z,92.87
2023-03-07T16:11:40.266Z,94.59
2023-03-07T16:14:21.771Z,94.59
2023-03-07T16:16:49.991Z,94.94
2023-03-07T16:19:17.315Z,95.65
2023-03-07T16:21:44.844Z,95.63
2023-03-07T16:24:12.410Z,95.57
2023-03-07T16:26:43.100Z,99.62
2023-03-07T16:29:19.733Z,99.44
2023-03-07T16:31:47.458Z,99.00
2023-03-07T16:34:20.612Z,99.32
2023-03-07T16:36:48.269Z,98.39
2023-03-07T16:39:18.080Z,99.35
2023-03-07T16:41:48.937Z,99.66
2023-03-07T16:44:18.653Z,100.00
2023-03-07T16:46:52.749Z,100.00
2023-03-07T16:49:21.141Z,100.00
2023-03-07T16:51:59.669Z,100.00
2023-03-07T16:54:32.842Z,100.00
2023-03-07T16:57:02.209Z,100.00
2023-03-07T16:59:34.900Z,100.00
2023-03-07T17:02:10.748Z,100.00
2023-03-07T17:04:38.048Z,100.00
2023-03-07T17:07:12.924Z,100.00
2023-03-07T17:09:40.695Z,100.00
2023-03-07T17:12:08.662Z,100.00
2023-03-07T17:14:36.244Z,100.00
2023-03-07T17:17:05.031Z,100.00
2023-03-07T17:19:33.201Z,98.54
2023-03-07T17:22:02.893Z,96.51
2023-03-07T17:24:31.040Z,94.36
2023-03-07T17:27:00.649Z,91.42
2023-03-07T17:29:36.420Z,88.65
2023-03-07T17:32:04.462Z,87.65
2023-03-07T17:34:34.294Z,88.60
2023-03-07T17:37:02.459Z,86.68
2023-03-07T17:39:30.926Z,88.11
2023-03-07T17:41:59.167Z,85.92
2023-03-07T17:44:26.683Z,84.88
2023-03-07T17:46:54.673Z,82.18
2023-03-07T17:49:23.049Z,82.12
2023-03-07T17:51:52.134Z,83.22
2023-03-07T17:54:20.118Z,81.54
2023-03-07T17:56:47.694Z,80.54
2023-03-07T17:59:15.094Z,79.85
2023-03-07T18:01:42.910Z,80.10
2023-03-07T18:04:10.314Z,81.16
2023-03-07T18:06:39.959Z,81.00
2023-03-07T18:09:09.283Z,82.23
2023-03-07T18:11:36.922Z,83.08
2023-03-07T18:14:04.150Z,81.91
2023-03-07T18:16:31.760Z,82.64
2023-03-07T18:19:01.763Z,83.61
2023-03-07T18:21:30.543Z,82.89
2023-03-07T18:23:58.163Z,84.64
2023-03-07T18:26:25.866Z,84.90
2023-03-07T18:28:53.924Z,84.92
2023-03-07T18:31:28.766Z,85.25
2023-03-07T18:33:56.608Z,85.02
2023-03-07T18:36:25.302Z,85.36
2023-03-07T18:38:52.706Z,85.21
2023-03-07T18:41:22.578Z,85.92
2023-03-07T18:43:50.560Z,86.34
2023-03-07T18:46:20.166Z,86.28
2023-03-07T18:48:49.150Z,86.37
2023-03-07T18:51:23.752Z,86.01
2023-03-07T18:53:52.571Z,85.99
2023-03-07T18:56:20.381Z,86.88
2023-03-07T18:58:48.270Z,87.25
2023-03-07T19:01:21.835Z,87.45
2023-03-07T19:03:51.348Z,88.37
2023-03-07T19:06:20.336Z,88.53
2023-03-07T19:08:47.643Z,88.38
2023-03-07T19:11:16.248Z,87.83
2023-03-07T19:13:43.895Z,87.67
2023-03-07T19:16:19.257Z,87.42
2023-03-07T19:18:47.101Z,90.24
2023-03-07T19:21:19.139Z,89.31
2023-03-07T19:23:47.103Z,91.16
2023-03-07T19:26:19.555Z,91.45
2023-03-07T19:28:48.597Z,88.13
2023-03-07T19:31:18.933Z,90.13
2023-03-07T19:33:48.066Z,87.33
2023-03-07T19:36:20.327Z,87.76
2023-03-07T19:38:51.182Z,88.52
2023-03-07T19:41:22.320Z,89.77
2023-03-07T19:43:50.151Z,87.98
2023-03-07T19:46:21.282Z,90.77
2023-03-07T19:48:48.817Z,95.99
2023-03-07T19:51:18.860Z,94.24
2023-03-07T19:53:46.815Z,86.64
2023-03-07T19:56:22.562Z,85.15
2023-03-07T19:58:50.345Z,84.82
2023-03-07T20:01:20.209Z,85.38
2023-03-07T20:03:48.823Z,84.27
2023-03-07T20:06:24.560Z,83.93
2023-03-07T20:08:53.370Z,83.33
2023-03-07T20:11:27.411Z,83.10
2023-03-07T20:13:58.165Z,83.02
2023-03-07T20:16:29.142Z,83.21
2023-03-07T20:19:02.379Z,82.17
2023-03-07T20:21:30.287Z,81.60
2023-03-07T20:24:00.813Z,82.54
2023-03-07T20:26:31.847Z,81.74
2023-03-07T20:29:00.245Z,79.79
2023-03-07T20:31:28.519Z,78.98
2023-03-07T20:33:58.440Z,79.06
2023-03-07T20:36:29.033Z,79.70
2023-03-07T20:38:58.481Z,80.25
2023-03-07T20:41:31.829Z,81.10
2023-03-07T20:44:04.573Z,81.45
2023-03-07T20:46:33.196Z,80.97
2023-03-07T20:49:01.843Z,80.79
2023-03-07T20:51:32.180Z,81.50
2023-03-07T20:54:01.669Z,82.14
2023-03-07T20:56:31.520Z,81.90
2023-03-07T20:59:00.023Z,82.51
2023-03-07T21:01:29.866Z,82.81
2023-03-07T21:04:02.038Z,82.81
2023-03-07T21:06:29.617Z,82.42
2023-03-07T21:08:59.517Z,82.58
2023-03-07T21:11:28.467Z,81.97
2023-03-07T21:13:55.730Z,81.36
2023-03-07T21:16:25.347Z,80.65
2023-03-07T21:18:52.790Z,81.15
2023-03-07T21:21:21.702Z,80.31
2023-03-07T21:23:49.038Z,80.08
2023-03-07T21:26:22.580Z,79.40
2023-03-07T21:28:51.408Z,79.91
2023-03-07T21:31:25.254Z,77.96
2023-03-07T21:33:55.288Z,75.67
2023-03-07T21:36:24.208Z,74.86
2023-03-07T21:38:51.613Z,74.53
2023-03-07T21:41:22.013Z,75.00
2023-03-07T21:43:49.577Z,76.43
2023-03-07T21:46:17.830Z,76.33
2023-03-07T21:48:45.077Z,75.41
2023-03-07T21:51:12.831Z,74.92
2023-03-07T21:53:40.351Z,74.01
2023-03-07T21:56:10.583Z,72.88
2023-03-07T21:58:39.116Z,73.54
2023-03-07T22:01:14.972Z,73.25
2023-03-07T22:03:42.785Z,73.27
2023-03-07T22:06:13.728Z,73.66
2023-03-07T22:08:41.833Z,73.69
2023-03-07T22:11:11.523Z,74.45
2023-03-07T22:13:40.874Z,74.62
2023-03-07T22:16:11.982Z,74.13
2023-03-07T22:18:39.275Z,75.25
2023-03-07T22:21:14.220Z,75.61
2023-03-07T22:23:42.642Z,75.29
2023-03-07T22:26:11.897Z,76.07
2023-03-07T22:28:41.092Z,76.57
2023-03-07T22:31:12.169Z,76.16
2023-03-07T22:33:41.213Z,77.99
2023-03-07T22:36:12.206Z,77.54
2023-03-07T22:38:40.072Z,77.33
2023-03-07T22:41:11.842Z,78.21
2023-03-07T22:43:39.488Z,77.71
2023-03-07T22:46:08.132Z,77.52
2023-03-07T22:48:35.752Z,77.18
2023-03-07T22:51:03.994Z,76.42
2023-03-07T22:53:32.663Z,75.92
2023-03-07T22:56:00.914Z,75.99
2023-03-07T22:58:30.387Z,76.14
2023-03-07T23:00:58.267Z,75.80
2023-03-07T23:03:25.524Z,75.72
2023-03-07T23:05:53.076Z,75.17
2023-03-07T23:08:20.650Z,75.19
2023-03-07T23:10:48.266Z,74.55
2023-03-07T23:13:17.117Z,73.75
2023-03-07T23:15:44.822Z,73.37
2023-03-07T23:18:12.220Z,73.21
2023-03-07T23:20:39.843Z,72.80
2023-03-07T23:23:07.097Z,72.61
2023-03-07T23:25:34.590Z,72.00
2023-03-07T23:28:01.983Z,72.44
2023-03-07T23:30:29.820Z,72.09
2023-03-07T23:32:57.103Z,71.71
2023-03-07T23:35:24.635Z,71.78
2023-03-07T23:37:51.924Z,71.76
2023-03-07T23:40:19.550Z,72.36
2023-03-07T23:42:46.806Z,71.13
2023-03-07T23:45:14.340Z,71.53
2023-03-07T23:47:41.581Z,71.20
2023-03-07T23:50:10.207Z,71.70
2023-03-07T23:52:37.534Z,71.40
2023-03-07T23:55:09.100Z,71.71
2023-03-07T23:57:37.555Z,71.71
